Time;durP1;ratioP1;P1;durP2;ratioP2;P2;SDS_P1;SDS_P2;PMS_P1;PMS_P2;Temp;Humidity;BMP_temperature;BMP_pressure;BME280_temperature;BME280_humidity;BME280_pressure;Samples;Min_cycle;Max_cycle;Signal;HPM_P1;HPM_P2
2024/01/04 00:01:53;;;;;;;9.80;7.80;;;-2.50;99.90;-3.60;97887;;;;568769;250;24082;-75
2024/01/04 00:04:21;;;;;;;12.10;7.33;;;-2.50;99.90;-3.60;97882;;;;568663;250;24103;-75
2024/01/04 00:06:49;;;;;;;10.23;7.33;;;-2.50;99.90;-3.60;97882;;;;568339;250;24156;-76
2024/01/04 00:09:17;;;;;;;17.73;11.93;;;-2.50;99.90;-3.60;97885;;;;568614;246;24087;-76
2024/01/04 00:11:47;;;;;;;18.30;10.87;;;-2.50;99.90;-3.70;97876;;;;560190;252;25136;-76
2024/01/04 00:14:15;;;;;;;16.90;10.90;;;-2.50;99.90;-3.70;97889;;;;549842;257;24133;-76
2024/01/04 00:16:43;;;;;;;19.40;11.10;;;-2.60;99.90;-3.70;97885;;;;560430;252;24164;-76
2024/01/04 00:19:11;;;;;;;15.33;10.53;;;-2.60;99.90;-3.70;97884;;;;549772;257;24084;-75
2024/01/04 00:21:39;;;;;;;8.47;6.23;;;-2.60;99.90;-3.70;97879;;;;560316;252;24082;-75
2024/01/04 00:24:07;;;;;;;9.63;6.00;;;-2.60;99.90;-3.60;97878;;;;559754;254;24182;-76
2024/01/04 00:26:34;;;;;;;11.52;6.65;;;-2.50;99.90;-3.60;97882;;;;553496;252;35349;-76
2024/01/04 00:29:02;;;;;;;12.30;6.87;;;-2.50;99.90;-3.50;97876;;;;568286;250;24118;-76
2024/01/04 00:31:30;;;;;;;16.27;9.97;;;-2.50;99.90;-3.50;97876;;;;567955;250;24075;-77
2024/01/04 00:33:59;;;;;;;12.23;8.27;;;-2.40;99.90;-3.50;97875;;;;568382;246;24101;-76
2024/01/04 00:36:28;;;;;;;5.77;4.40;;;-2.40;99.90;-3.50;97871;;;;568275;246;24075;-76
2024/01/04 00:38:55;;;;;;;6.90;5.10;;;-2.40;99.90;-3.40;97869;;;;568711;250;24104;-76
2024/01/04 00:41:23;;;;;;;18.50;10.07;;;-2.30;99.90;-3.40;97866;;;;568214;250;24077;-76
2024/01/04 00:43:51;;;;;;;15.67;10.73;;;-2.30;99.90;-3.40;97860;;;;560637;252;24093;-75
2024/01/04 00:46:19;;;;;;;12.00;7.80;;;-2.30;99.90;-3.40;97861;;;;550081;257;24154;-76
2024/01/04 00:48:47;;;;;;;10.70;7.10;;;-2.30;99.90;-3.40;97874;;;;561226;251;24079;-77
2024/01/04 00:51:16;;;;;;;7.27;5.20;;;-2.30;99.90;-3.40;97872;;;;560214;251;24162;-75
2024/01/04 00:53:44;;;;;;;9.27;5.90;;;-2.30;99.90;-3.40;97868;;;;561385;252;25112;-76
2024/01/04 00:56:15;;;;;;;8.53;6.63;;;-2.30;99.90;-3.40;97866;;;;569780;250;24065;-76
2024/01/04 00:58:40;;;;;;;9.43;7.03;;;-2.30;99.90;-3.40;97870;;;;569182;252;24107;-76
2024/01/04 01:01:07;;;;;;;14.20;8.73;;;-2.30;99.90;-3.40;97869;;;;569625;246;24120;-75
2024/01/04 01:03:35;;;;;;;12.13;7.87;;;-2.40;99.90;-3.50;97861;;;;570116;250;24084;-76
2024/01/04 01:06:04;;;;;;;7.80;5.90;;;-2.40;99.90;-3.50;97864;;;;570032;250;24074;-76
2024/01/04 01:08:32;;;;;;;15.73;8.60;;;-2.40;99.90;-3.50;97864;;;;560537;252;24106;-78
2024/01/04 01:11:00;;;;;;;6.87;5.63;;;-2.40;99.90;-3.40;97863;;;;568948;250;24088;-76
2024/01/04 01:13:28;;;;;;;12.73;8.40;;;-2.40;99.90;-3.40;97862;;;;569846;246;24108;-75
2024/01/04 01:15:56;;;;;;;14.47;7.57;;;-2.30;99.90;-3.40;97854;;;;569780;250;24081;-76
2024/01/04 01:18:25;;;;;;;10.03;6.80;;;-2.30;99.90;-3.40;97867;;;;569476;250;24107;-83
2024/01/04 01:20:53;;;;;;;9.97;6.17;;;-2.30;99.90;-3.40;97852;;;;569489;250;24074;-77
2024/01/04 01:23:21;;;;;;;11.50;7.60;;;-2.30;99.90;-3.40;97859;;;;559428;252;24086;-80
2024/01/04 01:25:49;;;;;;;8.43;5.83;;;-2.40;99.90;-3.40;97858;;;;568838;250;24078;-80
2024/01/04 01:28:17;;;;;;;13.37;7.27;;;-2.40;99.90;-3.40;97858;;;;560020;250;24101;-78
2024/01/04 01:30:45;;;;;;;9.60;6.13;;;-2.30;99.90;-3.40;97859;;;;569041;250;24081;-82
2024/01/04 01:33:13;;;;;;;9.50;7.03;;;-2.30;99.90;-3.40;97869;;;;568900;250;25117;-80
2024/01/04 01:35:41;;;;;;;11.53;7.80;;;-2.30;99.90;-3.40;97855;;;;568744;250;24090;-78
2024/01/04 01:38:09;;;;;;;12.20;7.77;;;-2.40;99.90;-3.40;97849;;;;567999;250;24070;-76
2024/01/04 01:40:37;;;;;;;13.07;7.43;;;-2.40;99.90;-3.40;97854;;;;568335;250;24109;-76
2024/01/04 01:43:05;;;;;;;6.00;4.50;;;-2.40;99.90;-3.50;97849;;;;568901;250;24079;-75
2024/01/04 01:45:33;;;;;;;11.20;7.60;;;-2.40;99.90;-3.50;97848;;;;568752;250;24066;-77
2024/01/04 01:48:04;;;;;;;16.03;9.33;;;-2.40;99.90;-3.50;97852;;;;569620;250;24111;-76
2024/01/04 01:50:29;;;;;;;7.13;5.00;;;-2.40;99.90;-3.50;97857;;;;561251;252;24110;-76
2024/01/04 01:52:59;;;;;;;6.77;5.57;;;-2.40;99.90;-3.50;97860;;;;561549;252;24145;-76
2024/01/04 01:55:27;;;;;;;11.03;7.67;;;-2.40;99.90;-3.40;97861;;;;569283;250;24103;-77
2024/01/04 01:57:52;;;;;;;12.23;7.30;;;-2.30;99.90;-3.30;97865;;;;569010;252;24119;-78
2024/01/04 02:00:21;;;;;;;9.57;6.13;;;-2.30;99.90;-3.30;97861;;;;561946;251;24104;-78
2024/01/04 02:02:49;;;;;;;8.60;6.23;;;-2.30;99.90;-3.30;97864;;;;571244;249;24107;-74
2024/01/04 02:05:17;;;;;;;8.37;5.37;;;-2.30;99.90;-3.30;97862;;;;570563;249;24161;-74
2024/01/04 02:07:48;;;;;;;10.23;7.13;;;-2.20;99.90;-3.30;97861;;;;564054;252;24103;-79
2024/01/04 02:10:13;;;;;;;7.67;5.40;;;-2.20;99.90;-3.40;97849;;;;560122;252;24104;-75
2024/01/04 02:12:41;;;;;;;10.93;6.87;;;-2.30;99.90;-3.30;97845;;;;568452;247;24074;-74
2024/01/04 02:15:09;;;;;;;8.00;5.53;;;-2.30;99.90;-3.30;97854;;;;560989;252;25129;-75
2024/01/04 02:17:39;;;;;;;7.10;4.70;;;-2.30;99.90;-3.30;97845;;;;561122;250;24081;-74
2024/01/04 02:20:06;;;;;;;14.37;6.90;;;-2.30;99.90;-3.30;97848;;;;560705;251;24092;-74
2024/01/04 02:22:40;;;;;;;10.87;6.87;;;-2.30;99.90;-3.40;97847;;;;568984;246;24163;-74
2024/01/04 02:25:05;;;;;;;8.90;5.90;;;-2.40;99.90;-3.40;97844;;;;559944;252;24150;-74
2024/01/04 02:27:33;;;;;;;13.13;7.70;;;-2.40;99.90;-3.40;97840;;;;568707;250;24094;-74
2024/01/04 02:30:01;;;;;;;14.87;8.70;;;-2.40;99.90;-3.40;97837;;;;568541;250;24066;-75
2024/01/04 02:32:29;;;;;;;8.63;5.17;;;-2.30;99.90;-3.40;97843;;;;568428;246;24078;-75
2024/01/04 02:34:57;;;;;;;12.40;8.17;;;-2.30;99.90;-3.30;97849;;;;569033;250;24076;-75
2024/01/04 02:37:25;;;;;;;12.67;8.37;;;-2.30;99.90;-3.30;97844;;;;568759;250;24111;-81
2024/01/04 02:39:53;;;;;;;12.27;7.37;;;-2.30;99.90;-3.30;97841;;;;568383;250;24085;-82
2024/01/04 02:42:21;;;;;;;9.03;5.73;;;-2.30;99.90;-3.40;97835;;;;568437;250;24091;-79
2024/01/04 02:44:48;;;;;;;10.70;6.63;;;-2.30;99.90;-3.30;97834;;;;560256;252;24058;-77
2024/01/04 02:47:16;;;;;;;8.93;5.83;;;-2.20;99.90;-3.20;97838;;;;560146;252;24079;-77
2024/01/04 02:49:44;;;;;;;11.57;6.23;;;-2.10;99.90;-3.10;97843;;;;569031;250;24109;-76
2024/01/04 02:52:12;;;;;;;8.53;4.00;;;-2.00;99.90;-3.10;97834;;;;568633;250;24081;-75
2024/01/04 02:54:41;;;;;;;4.97;3.63;;;-2.00;99.90;-3.10;97834;;;;569108;250;24100;-75
2024/01/04 02:57:09;;;;;;;6.10;3.77;;;-2.10;99.90;-3.10;97835;;;;569143;250;24101;-78
2024/01/04 02:59:37;;;;;;;5.23;3.23;;;-2.00;99.90;-3.10;97839;;;;569082;250;24111;-79
2024/01/04 03:02:05;;;;;;;8.63;5.47;;;-2.00;99.90;-3.10;97831;;;;568768;250;24075;-80
2024/01/04 03:04:33;;;;;;;8.57;5.47;;;-2.10;99.90;-3.10;97829;;;;569480;250;24081;-80
2024/01/04 03:07:00;;;;;;;6.33;3.97;;;-2.10;99.90;-3.10;97824;;;;569055;250;24081;-75
2024/01/04 03:09:28;;;;;;;5.93;4.33;;;-2.10;99.90;-3.20;97823;;;;568896;250;24097;-75
2024/01/04 03:11:56;;;;;;;6.23;3.20;;;-2.10;99.90;-3.20;97819;;;;569083;250;24082;-76
2024/01/04 03:14:25;;;;;;;8.70;5.10;;;-2.10;99.90;-3.20;97817;;;;570395;246;24106;-76
2024/01/04 03:16:53;;;;;;;5.70;3.77;;;-2.10;99.90;-3.20;97817;;;;569997;249;24088;-76
2024/01/04 03:19:21;;;;;;;7.60;4.57;;;-2.10;99.90;-3.20;97810;;;;569516;250;24083;-76
2024/01/04 03:21:49;;;;;;;5.00;3.63;;;-2.10;99.90;-3.20;97819;;;;569808;250;24081;-81
2024/01/04 03:24:17;;;;;;;5.87;2.77;;;-2.10;99.90;-3.20;97821;;;;569263;246;24091;-81
2024/01/04 03:26:44;;;;;;;5.30;3.43;;;-2.10;99.90;-3.20;97814;;;;569475;250;24092;-82
2024/01/04 03:29:13;;;;;;;8.83;5.93;;;-2.10;99.90;-3.20;97819;;;;569662;250;24097;-81
2024/01/04 03:31:41;;;;;;;5.03;3.60;;;-2.10;99.90;-3.20;97825;;;;569446;250;24080;-82
2024/01/04 03:34:09;;;;;;;4.60;2.77;;;-2.10;99.90;-3.20;97823;;;;569423;250;25130;-79
2024/01/04 03:36:37;;;;;;;2.63;2.37;;;-2.20;99.90;-3.20;97809;;;;568948;250;24137;-78
2024/01/04 03:39:05;;;;;;;5.37;3.23;;;-2.10;99.90;-3.20;97806;;;;569337;250;24091;-79
2024/01/04 03:41:33;;;;;;;9.10;6.30;;;-2.10;99.90;-3.20;97806;;;;563606;250;46122;-82
2024/01/04 03:44:01;;;;;;;5.47;3.47;;;-2.10;99.90;-3.10;97816;;;;568973;250;24088;-77
2024/01/04 03:46:29;;;;;;;3.90;3.20;;;-2.00;99.90;-3.20;97803;;;;569462;250;24121;-81
2024/01/04 03:48:56;;;;;;;5.00;3.60;;;-2.10;99.90;-3.10;97806;;;;569127;250;24106;-79
2024/01/04 03:51:24;;;;;;;3.93;2.80;;;-2.10;99.90;-3.20;97801;;;;560693;251;24136;-82
2024/01/04 03:53:52;;;;;;;8.93;6.00;;;-2.10;99.90;-3.20;97801;;;;564130;246;46199;-79
2024/01/04 03:56:20;;;;;;;2.80;1.67;;;-2.10;99.90;-3.20;97806;;;;568566;246;24076;-82
2024/01/04 03:58:49;;;;;;;3.93;3.13;;;-2.10;99.90;-3.10;97797;;;;569075;250;25185;-75
2024/01/04 04:01:17;;;;;;;4.17;2.80;;;-2.10;99.90;-3.10;97806;;;;569033;250;24083;-76
2024/01/04 04:03:45;;;;;;;3.53;3.10;;;-2.10;99.90;-3.10;97794;;;;569219;250;24146;-79
2024/01/04 04:06:15;;;;;;;9.27;4.83;;;-2.00;99.90;-3.10;97795;;;;569303;250;24101;-79
2024/01/04 04:08:41;;;;;;;3.53;2.73;;;-2.00;99.90;-3.20;97799;;;;568502;251;24137;-83
2024/01/04 04:11:20;;;;;;;4.93;3.60;;;-2.10;99.90;-3.20;97800;;;;569303;250;25115;-79
2024/01/04 04:13:45;;;;;;;7.63;4.90;;;-2.10;99.90;-3.20;97805;;;;560328;250;24147;-78
2024/01/04 04:16:14;;;;;;;8.10;5.43;;;-2.10;99.90;-3.20;97807;;;;569064;250;24069;-80
2024/01/04 04:18:42;;;;;;;5.03;3.17;;;-2.20;99.90;-3.30;97818;;;;569342;246;24106;-77
2024/01/04 04:21:10;;;;;;;6.90;4.37;;;-2.20;99.90;-3.30;97810;;;;568895;250;25110;-79
2024/01/04 04:23:38;;;;;;;4.70;4.13;;;-2.20;99.90;-3.30;97817;;;;560826;251;24094;-80
2024/01/04 04:26:08;;;;;;;5.97;4.70;;;-2.20;99.90;-3.30;97802;;;;570816;249;24088;-78
2024/01/04 04:28:34;;;;;;;8.27;5.53;;;-2.20;99.90;-3.30;97805;;;;570244;247;24179;-79
2024/01/04 04:31:03;;;;;;;5.53;3.93;;;-2.20;99.90;-3.30;97805;;;;570353;248;24144;-76
2024/01/04 04:33:29;;;;;;;3.90;2.80;;;-2.20;99.90;-3.30;97819;;;;570033;250;24176;-81
2024/01/04 04:35:57;;;;;;;3.67;2.43;;;-2.20;99.90;-3.20;97807;;;;569891;250;24147;-82
2024/01/04 04:38:25;;;;;;;4.30;3.60;;;-2.20;99.90;-3.20;97811;;;;569783;245;24095;-81
2024/01/04 04:40:53;;;;;;;5.57;3.33;;;-2.20;99.90;-3.20;97814;;;;569606;250;24090;-81
2024/01/04 04:43:21;;;;;;;4.10;2.83;;;-2.10;99.90;-3.20;97815;;;;569703;250;24074;-80
2024/01/04 04:45:49;;;;;;;5.33;3.00;;;-2.10;99.90;-3.20;97816;;;;569577;250;24084;-79
2024/01/04 04:48:17;;;;;;;5.27;3.53;;;-2.10;99.90;-3.10;97814;;;;568648;250;24092;-79
2024/01/04 04:50:46;;;;;;;3.80;2.67;;;-2.00;99.90;-3.10;97813;;;;569200;250;24094;-80
2024/01/04 04:53:13;;;;;;;4.33;3.23;;;-2.00;99.90;-3.10;97813;;;;568719;250;24079;-77
2024/01/04 04:55:41;;;;;;;5.87;4.30;;;-2.00;99.90;-3.00;97804;;;;569443;250;24062;-82
2024/01/04 04:58:09;;;;;;;8.33;5.37;;;-2.00;99.90;-3.00;97805;;;;569368;250;24075;-77
2024/01/04 05:00:37;;;;;;;5.17;3.43;;;-2.00;99.90;-3.00;97805;;;;568692;246;24152;-80
2024/01/04 05:03:05;;;;;;;4.00;2.83;;;-2.00;99.90;-3.00;97818;;;;569038;250;24074;-76
2024/01/04 05:05:33;;;;;;;3.67;3.03;;;-2.00;99.90;-3.00;97814;;;;560478;252;24071;-79
2024/01/04 05:08:01;;;;;;;4.97;3.87;;;-1.90;99.90;-3.00;97819;;;;560752;252;24088;-83
2024/01/04 05:10:29;;;;;;;6.37;3.90;;;-1.90;99.90;-3.00;97816;;;;559759;252;24098;-76
2024/01/04 05:13:00;;;;;;;4.53;3.30;;;-1.90;99.90;-3.00;97820;;;;568371;250;24079;-76
2024/01/04 05:15:28;;;;;;;9.03;5.73;;;-2.00;99.90;-3.00;97811;;;;568502;250;24071;-77
2024/01/04 05:17:56;;;;;;;10.30;6.75;;;-2.00;99.90;-3.10;97802;;;;564140;250;35257;-74
2024/01/04 05:20:24;;;;;;;7.03;3.90;;;-2.00;99.90;-3.10;97803;;;;568706;250;24114;-76
2024/01/04 05:22:52;;;;;;;4.73;2.57;;;-2.00;99.90;-3.10;97810;;;;568575;250;24083;-82
2024/01/04 05:25:20;;;;;;;9.07;6.70;;;-2.00;99.90;-3.10;97828;;;;563690;250;35263;-77
2024/01/04 05:27:48;;;;;;;3.73;2.23;;;-2.10;99.90;-3.10;97824;;;;567964;250;24096;-78
2024/01/04 05:30:16;;;;;;;4.13;2.67;;;-2.00;99.90;-3.10;97810;;;;568361;250;24071;-74
2024/01/04 05:32:45;;;;;;;6.40;3.70;;;-2.00;99.90;-3.10;97811;;;;567912;250;24083;-77
2024/01/04 05:35:13;;;;;;;5.93;3.77;;;-2.10;99.90;-3.00;97807;;;;568399;250;24079;-82
2024/01/04 05:37:41;;;;;;;6.97;4.17;;;-2.00;99.90;-3.00;97820;;;;561045;252;24074;-82
2024/01/04 05:40:09;;;;;;;3.83;3.03;;;-1.90;99.90;-3.00;97820;;;;574114;235;24117;-79
2024/01/04 05:42:37;;;;;;;9.07;5.47;;;-1.90;99.90;-2.90;97824;;;;574162;247;24084;-78
2024/01/04 05:45:08;;;;;;;10.60;7.63;;;-1.90;99.90;-2.90;97819;;;;568519;250;24110;-78
2024/01/04 05:47:32;;;;;;;10.73;6.80;;;-1.90;99.90;-3.00;97815;;;;562863;251;24123;-77
2024/01/04 05:50:00;;;;;;;7.07;4.47;;;-1.90;99.90;-3.00;97825;;;;570480;248;24115;-78
2024/01/04 05:52:28;;;;;;;10.37;5.70;;;-1.90;99.90;-3.00;97828;;;;573494;247;24091;-78
2024/01/04 05:54:56;;;;;;;7.37;5.27;;;-2.00;99.90;-3.10;97836;;;;568351;251;24097;-79
2024/01/04 05:57:30;;;;;;;7.97;4.63;;;-2.00;99.90;-3.10;97828;;;;573467;242;24180;-78
2024/01/04 05:59:55;;;;;;;5.40;2.90;;;-2.00;99.90;-3.10;97844;;;;572599;247;24157;-79
2024/01/04 06:02:26;;;;;;;5.07;3.43;;;-2.00;99.90;-3.00;97839;;;;572870;247;24091;-79
2024/01/04 06:04:51;;;;;;;5.60;4.10;;;-2.00;99.90;-3.00;97835;;;;573138;247;24108;-78
2024/01/04 06:07:19;;;;;;;4.83;3.43;;;-1.90;99.90;-3.00;97835;;;;573515;247;24092;-79
2024/01/04 06:09:47;;;;;;;4.53;2.83;;;-2.00;99.90;-3.00;97836;;;;582132;245;24161;-78
2024/01/04 06:12:15;;;;;;;4.83;3.03;;;-1.90;99.90;-3.00;97844;;;;574158;247;24092;-76
2024/01/04 06:14:43;;;;;;;7.47;5.30;;;-1.90;99.90;-2.90;97842;;;;573367;247;24152;-77
2024/01/04 06:17:12;;;;;;;4.60;2.93;;;-1.90;99.90;-2.90;97833;;;;573291;247;24108;-79
2024/01/04 06:19:41;;;;;;;3.30;2.83;;;-1.90;99.90;-2.90;97837;;;;573716;247;24113;-79
2024/01/04 06:22:08;;;;;;;4.60;2.80;;;-1.80;99.90;-2.90;97837;;;;573386;247;24080;-80
2024/01/04 06:24:36;;;;;;;6.63;3.93;;;-1.80;99.90;-2.90;97834;;;;573478;247;24192;-79
2024/01/04 06:27:04;;;;;;;5.23;3.50;;;-1.80;99.90;-2.90;97832;;;;571592;249;24108;-78
2024/01/04 06:29:33;;;;;;;3.83;2.87;;;-1.80;99.90;-2.90;97831;;;;571225;251;24101;-77
2024/01/04 06:32:02;;;;;;;4.07;3.07;;;-1.80;99.90;-2.90;97839;;;;562912;251;24132;-77
2024/01/04 06:34:30;;;;;;;4.50;2.57;;;-1.80;99.90;-2.90;97836;;;;562761;251;24108;-78
2024/01/04 06:36:57;;;;;;;5.10;3.90;;;-1.80;99.90;-2.90;97841;;;;563023;251;24099;-79
2024/01/04 06:39:28;;;;;;;4.63;3.63;;;-1.80;99.90;-2.90;97850;;;;562421;251;24113;-80
2024/01/04 06:41:54;;;;;;;4.70;3.33;;;-1.80;99.90;-2.90;97847;;;;562860;251;24135;-79
2024/01/04 06:44:22;;;;;;;4.23;2.73;;;-1.80;99.90;-2.90;97849;;;;566424;251;24110;-80
2024/01/04 06:46:50;;;;;;;5.70;3.47;;;-1.80;99.90;-2.90;97845;;;;563211;251;24136;-78
2024/01/04 06:49:18;;;;;;;4.43;3.13;;;-1.80;99.90;-2.90;97855;;;;564419;251;24141;-76
2024/01/04 06:51:46;;;;;;;4.50;3.53;;;-1.80;99.90;-2.90;97855;;;;563722;250;24093;-78
2024/01/04 06:54:14;;;;;;;4.83;2.93;;;-1.80;99.90;-2.80;97860;;;;563740;251;24096;-77
2024/01/04 06:56:42;;;;;;;7.80;5.33;;;-1.80;99.90;-2.80;97861;;;;563424;251;24108;-76
2024/01/04 06:59:11;;;;;;;5.23;3.57;;;-1.80;99.90;-2.80;97854;;;;563725;251;24137;-79
2024/01/04 07:01:39;;;;;;;5.43;3.60;;;-1.80;99.90;-2.80;97858;;;;563319;251;24100;-78
2024/01/04 07:04:07;;;;;;;4.60;3.43;;;-1.80;99.90;-2.80;97856;;;;562773;251;24108;-77
2024/01/04 07:06:35;;;;;;;5.30;3.43;;;-1.80;99.90;-2.80;97866;;;;563182;251;24123;-78
2024/01/04 07:09:05;;;;;;;7.57;4.80;;;-1.80;99.90;-2.80;97860;;;;563039;251;25165;-76
2024/01/04 07:11:32;;;;;;;5.33;3.57;;;-1.70;99.90;-2.90;97853;;;;563103;247;24118;-80
2024/01/04 07:14:00;;;;;;;7.37;5.20;;;-1.80;99.90;-2.90;97858;;;;563176;251;24103;-78
2024/01/04 07:16:28;;;;;;;3.70;2.77;;;-1.80;99.90;-2.90;97854;;;;562946;251;24116;-80
2024/01/04 07:18:56;;;;;;;3.30;3.00;;;-1.80;99.90;-2.90;97852;;;;562865;251;24112;-78
2024/01/04 07:21:24;;;;;;;3.97;2.90;;;-1.90;99.90;-2.90;97859;;;;563469;251;24119;-78
2024/01/04 07:23:52;;;;;;;3.97;3.03;;;-1.90;99.90;-2.90;97865;;;;562968;251;24147;-78
2024/01/04 07:26:20;;;;;;;4.57;3.23;;;-1.90;99.90;-2.90;97863;;;;562864;251;24115;-80
2024/01/04 07:28:48;;;;;;;3.47;2.73;;;-1.80;99.90;-2.90;97852;;;;563305;251;24093;-79
2024/01/04 07:31:17;;;;;;;4.80;3.63;;;-1.80;99.90;-2.90;97852;;;;563447;251;24114;-80
2024/01/04 07:33:47;;;;;;;3.47;2.80;;;-1.80;99.90;-2.90;97849;;;;563487;251;24177;-77
2024/01/04 07:36:14;;;;;;;4.60;3.67;;;-1.80;99.90;-2.90;97863;;;;562558;251;24135;-80
2024/01/04 07:38:40;;;;;;;3.73;3.40;;;-1.80;99.90;-2.90;97867;;;;562646;251;24099;-78
2024/01/04 07:41:12;;;;;;;5.27;3.53;;;-1.80;99.90;-2.90;97868;;;;571827;245;24100;-79
2024/01/04 07:43:36;;;;;;;8.83;6.67;;;-1.80;99.90;-2.90;97871;;;;562148;251;24156;-78
2024/01/04 07:46:04;;;;;;;5.27;4.03;;;-1.80;99.90;-2.90;97863;;;;563177;251;24152;-78
2024/01/04 07:48:32;;;;;;;5.73;3.93;;;-1.80;99.90;-2.90;97872;;;;562430;251;24113;-78
2024/01/04 07:51:00;;;;;;;6.27;4.70;;;-1.80;99.90;-2.90;97867;;;;562820;251;24103;-78
2024/01/04 07:53:28;;;;;;;3.50;3.10;;;-1.80;99.90;-2.90;97867;;;;563368;251;24190;-79
2024/01/04 07:55:57;;;;;;;4.20;3.30;;;-1.80;99.90;-2.90;97870;;;;562838;251;24197;-78
2024/01/04 07:58:24;;;;;;;5.87;3.77;;;-1.70;99.90;-2.80;97884;;;;563798;251;24130;-77
2024/01/04 08:00:52;;;;;;;6.83;4.53;;;-1.80;99.90;-2.80;97878;;;;564415;251;24113;-79
2024/01/04 08:03:20;;;;;;;5.37;4.10;;;-1.70;99.90;-2.70;97880;;;;563667;251;24101;-78
2024/01/04 08:05:48;;;;;;;3.83;2.87;;;-1.70;99.90;-2.70;97872;;;;563491;251;24109;-78
2024/01/04 08:08:17;;;;;;;3.80;3.17;;;-1.70;99.90;-2.70;97875;;;;563797;251;24113;-78
2024/01/04 08:10:45;;;;;;;5.57;4.57;;;-1.70;99.90;-2.70;97879;;;;563657;251;24120;-77
2024/01/04 08:13:16;;;;;;;6.03;4.57;;;-1.60;99.90;-2.70;97879;;;;563681;251;24104;-80
2024/01/04 08:15:41;;;;;;;8.40;4.57;;;-1.60;99.90;-2.70;97871;;;;563565;251;24167;-81
2024/01/04 08:18:09;;;;;;;4.23;3.67;;;-1.70;99.90;-2.70;97882;;;;563430;251;24114;-79
2024/01/04 08:20:38;;;;;;;4.57;3.60;;;-1.60;99.90;-2.70;97887;;;;562541;251;24105;-78
2024/01/04 08:23:07;;;;;;;4.20;3.07;;;-1.70;99.90;-2.70;97883;;;;563174;251;24139;-78
2024/01/04 08:25:38;;;;;;;3.83;3.47;;;-1.70;99.90;-2.70;97871;;;;563452;251;24151;-78
2024/01/04 08:28:02;;;;;;;5.70;3.87;;;-1.60;99.90;-2.70;97892;;;;562460;251;24121;-77
2024/01/04 08:30:30;;;;;;;6.90;4.73;;;-1.60;99.90;-2.70;97882;;;;563118;251;24126;-78
2024/01/04 08:32:59;;;;;;;5.60;4.07;;;-1.60;99.90;-2.70;97879;;;;562991;251;25179;-77
2024/01/04 08:35:27;;;;;;;6.27;4.70;;;-1.60;99.90;-2.70;97880;;;;562897;251;24138;-77
2024/01/04 08:37:55;;;;;;;9.17;4.77;;;-1.60;99.90;-2.70;97873;;;;562788;251;24170;-78
2024/01/04 08:40:23;;;;;;;8.00;5.03;;;-1.60;99.90;-2.70;97879;;;;562945;251;24080;-78
2024/01/04 08:42:51;;;;;;;4.70;3.43;;;-1.60;99.90;-2.70;97879;;;;562869;251;24131;-78
2024/01/04 08:45:20;;;;;;;5.70;4.30;;;-1.60;99.90;-2.70;97888;;;;563214;251;24141;-77
2024/01/04 08:47:48;;;;;;;8.97;4.23;;;-1.70;99.90;-2.70;97883;;;;562889;251;24099;-78
2024/01/04 08:50:16;;;;;;;8.87;5.80;;;-1.60;99.90;-2.70;97881;;;;562678;251;24112;-78
2024/01/04 08:52:44;;;;;;;4.97;3.23;;;-1.70;99.90;-2.70;97891;;;;562683;251;24171;-78
2024/01/04 08:55:13;;;;;;;6.50;4.13;;;-1.60;99.90;-2.70;97886;;;;562794;251;24104;-78
2024/01/04 08:57:41;;;;;;;5.23;3.67;;;-1.70;99.90;-2.70;97884;;;;562934;251;24107;-77
2024/01/04 09:00:10;;;;;;;3.17;2.87;;;-1.70;99.90;-2.80;97880;;;;562825;251;24184;-80
2024/01/04 09:02:37;;;;;;;5.13;3.70;;;-1.70;99.90;-2.80;97890;;;;562780;251;24104;-76
2024/01/04 09:05:09;;;;;;;7.27;4.40;;;-1.70;99.90;-2.70;97884;;;;562499;251;24116;-78
2024/01/04 09:07:33;;;;;;;3.77;3.10;;;-1.70;99.90;-2.80;97892;;;;562015;251;24128;-77
2024/01/04 09:10:01;;;;;;;4.93;4.23;;;-1.70;99.90;-2.80;97892;;;;563035;251;24128;-78
2024/01/04 09:12:29;;;;;;;5.93;4.40;;;-1.70;99.90;-2.70;97900;;;;564127;250;24104;-78
2024/01/04 09:14:57;;;;;;;4.40;3.23;;;-1.70;99.90;-2.80;97908;;;;563646;251;24096;-77
2024/01/04 09:17:25;;;;;;;3.60;3.27;;;-1.70;99.90;-2.80;97904;;;;563777;250;24132;-78
2024/01/04 09:19:57;;;;;;;4.03;3.67;;;-1.80;99.90;-2.80;97906;;;;563469;251;24129;-77
2024/01/04 09:22:21;;;;;;;3.73;3.20;;;-1.80;99.90;-2.80;97916;;;;571391;247;24144;-77
2024/01/04 09:24:49;;;;;;;9.15;6.80;;;-1.80;99.90;-2.90;97903;;;;558455;251;46387;-78
2024/01/04 09:27:17;;;;;;;2.93;2.50;;;-1.80;99.90;-2.90;97899;;;;563434;250;24117;-77
2024/01/04 09:29:47;;;;;;;3.03;2.77;;;-1.80;99.90;-2.90;97904;;;;563157;251;24133;-77
2024/01/04 09:32:14;;;;;;;4.90;4.03;;;-1.80;99.90;-2.90;97907;;;;562997;251;24125;-77
2024/01/04 09:34:42;;;;;;;3.73;3.27;;;-1.80;99.90;-2.80;97902;;;;563097;250;24103;-77
2024/01/04 09:37:11;;;;;;;4.67;3.40;;;-1.80;99.90;-2.80;97911;;;;563123;251;25167;-77
2024/01/04 09:39:40;;;;;;;7.47;5.23;;;-1.70;99.90;-2.80;97905;;;;563141;251;24127;-77
2024/01/04 09:42:09;;;;;;;5.27;3.57;;;-1.70;99.90;-2.80;97904;;;;563009;251;25155;-78
2024/01/04 09:44:34;;;;;;;7.80;4.63;;;-1.80;99.90;-2.90;97907;;;;562927;251;24120;-78
2024/01/04 09:47:08;;;;;;;4.97;4.10;;;-1.80;99.90;-2.90;97905;;;;562872;250;24140;-80
2024/01/04 09:49:40;;;;;;;6.33;3.90;;;-1.80;99.90;-2.90;97909;;;;562106;251;24212;-77
2024/01/04 09:52:05;;;;;;;5.60;4.27;;;-1.80;99.90;-2.90;97905;;;;570992;251;24155;-79
2024/01/04 09:54:33;;;;;;;6.80;4.40;;;-1.80;99.90;-2.80;97901;;;;562266;251;24118;-79
2024/01/04 09:57:02;;;;;;;6.97;4.70;;;-1.80;99.90;-2.80;97901;;;;553140;255;24213;-77
2024/01/04 09:59:32;;;;;;;5.30;4.70;;;-1.80;99.90;-2.80;97896;;;;556974;256;24206;-78
2024/01/04 10:02:00;;;;;;;4.43;3.67;;;-1.80;99.90;-2.90;97907;;;;553179;256;24166;-78
2024/01/04 10:04:28;;;;;;;5.50;4.23;;;-1.80;99.90;-2.80;97917;;;;552452;256;24156;-79
2024/01/04 10:07:00;;;;;;;5.90;4.17;;;-1.80;99.90;-2.90;97908;;;;562669;251;24104;-81
2024/01/04 10:09:31;;;;;;;10.10;6.47;;;-1.80;99.90;-2.90;97911;;;;562465;251;25147;-80
2024/01/04 10:11:58;;;;;;;6.53;4.80;;;-1.80;99.90;-2.90;97914;;;;565981;247;24128;-78
2024/01/04 10:14:29;;;;;;;8.10;5.03;;;-1.80;99.90;-2.90;97918;;;;571377;251;24109;-81
2024/01/04 10:16:56;;;;;;;7.60;5.90;;;-1.80;99.90;-3.00;97903;;;;562288;251;24138;-79
2024/01/04 10:19:26;;;;;;;7.47;5.70;;;-1.90;99.90;-3.00;97909;;;;561977;251;24161;-79
2024/01/04 10:21:50;;;;;;;4.50;4.03;;;-1.90;99.90;-3.00;97900;;;;566287;251;24128;-81
2024/01/04 10:24:24;;;;;;;6.43;5.23;;;-1.90;99.90;-3.00;97902;;;;564316;249;24221;-80
2024/01/04 10:26:58;;;;;;;5.93;4.43;;;-2.00;99.90;-3.10;97898;;;;562925;250;24197;-80
2024/01/04 10:29:23;;;;;;;11.57;8.47;;;-2.00;99.90;-3.10;97896;;;;557999;251;35444;-78
2024/01/04 10:32:00;;;;;;;10.67;8.53;;;-2.00;99.90;-3.10;97900;;;;562125;251;35449;-79
2024/01/04 10:34:28;;;;;;;7.35;6.03;;;-2.00;99.90;-3.10;97912;;;;557942;251;35582;-79
2024/01/04 10:36:57;;;;;;;5.40;3.13;;;-2.00;99.90;-3.10;97919;;;;567064;251;24127;-78
2024/01/04 10:39:25;;;;;;;4.77;3.23;;;-2.00;99.90;-3.10;97929;;;;562371;251;24146;-76
2024/01/04 10:42:01;;;;;;;9.10;6.20;;;-2.00;99.90;-3.10;97922;;;;562719;251;24120;-77
2024/01/04 10:44:27;;;;;;;7.27;5.00;;;-2.00;99.90;-3.10;97915;;;;565619;251;24189;-77
2024/01/04 10:46:55;;;;;;;4.53;3.67;;;-2.00;99.90;-3.20;97914;;;;563190;251;24179;-77
2024/01/04 10:49:23;;;;;;;4.10;3.30;;;-2.00;99.90;-3.20;97908;;;;562621;246;24112;-77
2024/01/04 10:51:54;;;;;;;4.27;3.13;;;-2.10;99.90;-3.20;97922;;;;562406;250;24124;-77
2024/01/04 10:54:22;;;;;;;5.63;4.77;;;-2.10;99.90;-3.20;97922;;;;566063;250;24116;-77
2024/01/04 10:56:52;;;;;;;4.57;3.67;;;-2.10;99.90;-3.20;97917;;;;562812;251;24119;-78
2024/01/04 10:59:21;;;;;;;5.37;3.70;;;-2.10;99.90;-3.20;97915;;;;562324;251;24131;-77
2024/01/04 11:01:45;;;;;;;3.93;3.50;;;-2.10;99.90;-3.20;97915;;;;562375;249;24125;-77
2024/01/04 11:04:14;;;;;;;4.73;3.53;;;-2.10;99.90;-3.20;97914;;;;562597;247;24148;-80
2024/01/04 11:06:42;;;;;;;4.53;3.60;;;-2.10;99.90;-3.20;97916;;;;562371;251;24109;-77
2024/01/04 11:09:13;;;;;;;4.27;3.63;;;-2.10;99.90;-3.20;97913;;;;562635;251;24118;-79
2024/01/04 11:11:38;;;;;;;5.17;4.33;;;-2.10;99.90;-3.20;97913;;;;562062;251;24132;-79
2024/01/04 11:14:06;;;;;;;4.77;3.83;;;-2.10;99.90;-3.20;97911;;;;565764;251;24139;-80
2024/01/04 11:16:50;;;;;;;3.20;2.90;;;-2.10;99.90;-3.20;97910;;;;562857;251;25178;-78
2024/01/04 11:20:08;;;;;;;5.73;4.03;;;-2.10;99.90;-3.20;97919;;;;565750;251;24123;-78